createdAt,value
2018-04-01T00:01:25.130Z,2.65
2018-04-01T00:03:52.382Z,1.85
2018-04-01T00:06:19.738Z,2.75
2018-04-01T00:08:47.105Z,1.85
2018-04-01T00:11:14.449Z,3.45
2018-04-01T00:13:41.804Z,3.75
2018-04-01T00:16:09.164Z,3.30
2018-04-01T00:18:36.515Z,1.80
2018-04-01T00:21:03.870Z,2.60
2018-04-01T00:23:31.225Z,4.20
2018-04-01T00:25:58.580Z,3.05
2018-04-01T00:28:25.935Z,2.80
2018-04-01T00:30:53.293Z,2.78
2018-04-01T00:33:20.653Z,3.30
2018-04-01T00:35:48.812Z,3.05
2018-04-01T00:38:16.179Z,2.75
2018-04-01T00:40:43.532Z,4.18
2018-04-01T00:43:10.886Z,6.70
2018-04-01T00:45:38.244Z,2.17
2018-04-01T00:48:05.597Z,2.55
2018-04-01T00:50:32.953Z,1.90
2018-04-01T00:53:00.307Z,4.20
2018-04-01T00:55:27.663Z,5.10
2018-04-01T00:57:55.018Z,5.60
2018-04-01T01:00:22.374Z,3.42
2018-04-01T01:02:49.729Z,2.10
2018-04-01T01:05:17.084Z,5.00
2018-04-01T01:07:44.440Z,4.75
2018-04-01T01:10:11.827Z,2.08
2018-04-01T01:12:39.150Z,2.20
2018-04-01T01:15:06.505Z,2.05
2018-04-01T01:17:33.862Z,2.03
2018-04-01T01:20:01.216Z,2.80
2018-04-01T01:22:28.752Z,2.37
2018-04-01T01:24:56.955Z,2.30
2018-04-01T01:27:24.306Z,2.37
2018-04-01T01:29:51.665Z,3.35
2018-04-01T01:32:19.019Z,1.90
2018-04-01T01:34:46.372Z,6.78
2018-04-01T01:37:13.728Z,2.60
2018-04-01T01:39:41.082Z,3.10
2018-04-01T01:42:08.438Z,4.97
2018-04-01T01:44:35.794Z,3.80
2018-04-01T01:47:03.149Z,4.93
2018-04-01T01:49:30.503Z,3.47
2018-04-01T01:51:57.862Z,2.42
2018-04-01T01:54:25.216Z,4.35
2018-04-01T01:56:52.570Z,2.80
2018-04-01T01:59:19.926Z,3.30
2018-04-01T02:01:47.280Z,5.65
2018-04-01T02:04:14.636Z,10.48
2018-04-01T02:06:41.993Z,4.80
2018-04-01T02:09:09.348Z,6.05
2018-04-01T02:11:36.702Z,5.78
2018-04-01T02:14:04.057Z,4.20
2018-04-01T02:16:31.412Z,4.07
2018-04-01T02:18:58.768Z,4.03
2018-04-01T02:21:26.229Z,2.80
2018-04-01T02:23:53.582Z,5.12
2018-04-01T02:26:20.937Z,3.15
2018-04-01T02:28:48.293Z,4.80
2018-04-01T02:31:15.649Z,2.95
2018-04-01T02:33:42.905Z,5.72
2018-04-01T02:36:10.256Z,2.92
2018-04-01T02:38:37.613Z,3.70
2018-04-01T02:41:04.966Z,6.03
2018-04-01T02:43:32.322Z,4.18
2018-04-01T02:46:00.394Z,4.37
2018-04-01T02:48:27.749Z,5.05
2018-04-01T02:50:55.115Z,5.05
2018-04-01T02:53:22.460Z,10.82
2018-04-01T02:55:49.815Z,7.78
2018-04-01T02:58:17.226Z,3.78
2018-04-01T03:00:45.345Z,3.33
2018-04-01T03:03:12.700Z,2.90
2018-04-01T03:05:40.057Z,3.90
2018-04-01T03:08:07.412Z,7.30
2018-04-01T03:10:34.766Z,6.22
2018-04-01T03:13:02.121Z,3.53
2018-04-01T03:15:29.476Z,4.50
2018-04-01T03:17:56.834Z,4.05
2018-04-01T03:20:24.192Z,5.18
2018-04-01T03:22:51.542Z,3.35
2018-04-01T03:25:18.898Z,8.80
2018-04-01T03:27:46.253Z,5.85
2018-04-01T03:30:13.610Z,3.80
2018-04-01T03:32:40.964Z,5.15
2018-04-01T03:35:08.323Z,5.70
2018-04-01T03:37:35.679Z,6.93
2018-04-01T03:40:03.030Z,3.87
2018-04-01T03:42:30.386Z,4.10
2018-04-01T03:44:57.740Z,4.43
2018-04-01T03:47:25.096Z,3.45
2018-04-01T03:49:52.452Z,3.78
2018-04-01T03:52:19.807Z,4.00
2018-04-01T03:54:47.162Z,10.63
2018-04-01T03:57:14.518Z,4.37
2018-04-01T03:59:41.871Z,8.38
2018-04-01T04:02:09.227Z,5.75
2018-04-01T04:04:36.582Z,5.65
2018-04-01T04:07:03.939Z,6.95
2018-04-01T04:09:31.298Z,5.22
2018-04-01T04:11:58.648Z,5.07
2018-04-01T04:14:26.005Z,7.72
2018-04-01T04:16:53.360Z,6.00
2018-04-01T04:19:20.716Z,5.15
2018-04-01T04:21:48.078Z,5.03
2018-04-01T04:24:15.427Z,5.37
2018-04-01T04:26:42.780Z,6.10
2018-04-01T04:29:10.136Z,9.75
2018-04-01T04:31:37.492Z,7.55
2018-04-01T04:34:04.846Z,5.78
2018-04-01T04:36:32.238Z,6.20
2018-04-01T04:39:00.376Z,7.68
2018-04-01T04:41:27.731Z,6.57
2018-04-01T04:43:55.086Z,9.45
2018-04-01T04:46:22.448Z,6.35
2018-04-01T04:48:49.797Z,4.50
2018-04-01T04:51:17.153Z,4.20
2018-04-01T04:53:44.508Z,7.60
2018-04-01T04:56:11.867Z,6.37
2018-04-01T04:58:39.218Z,6.50
2018-04-01T05:01:06.574Z,6.12
2018-04-01T05:03:33.859Z,9.75
2018-04-01T05:06:02.001Z,11.65
2018-04-01T05:08:29.358Z,10.38
2018-04-01T05:10:56.713Z,7.12
2018-04-01T05:13:24.070Z,9.88
2018-04-01T05:15:51.427Z,12.90
2018-04-01T05:18:18.781Z,9.10
2018-04-01T05:20:47.814Z,11.38
2018-04-01T05:23:15.946Z,10.40
2018-04-01T05:25:43.302Z,11.73
2018-04-01T05:28:10.657Z,11.35
2018-04-01T05:30:38.012Z,12.32
2018-04-01T05:33:05.370Z,13.18
2018-04-01T05:35:32.723Z,9.73
2018-04-01T05:38:00.078Z,9.50
2018-04-01T05:40:27.432Z,9.98
2018-04-01T05:42:54.789Z,10.02
2018-04-01T05:45:22.143Z,11.82
2018-04-01T05:47:49.499Z,9.98
2018-04-01T05:50:16.856Z,11.40
2018-04-01T05:52:44.210Z,9.35
2018-04-01T05:55:11.565Z,12.15
2018-04-01T05:57:38.921Z,9.73
2018-04-01T06:00:06.276Z,9.82
2018-04-01T06:02:33.558Z,12.50
2018-04-01T06:05:00.884Z,10.63
2018-04-01T06:07:29.554Z,10.88
2018-04-01T06:09:56.927Z,10.25
2018-04-01T06:12:24.281Z,9.27
2018-04-01T06:14:51.636Z,11.70
2018-04-01T06:17:18.991Z,14.13
2018-04-01T06:19:46.347Z,11.85
2018-04-01T06:22:13.702Z,11.23
2018-04-01T06:24:41.058Z,13.00
2018-04-01T06:27:08.413Z,13.25
2018-04-01T06:29:35.769Z,13.02
2018-04-01T06:32:03.124Z,13.50
2018-04-01T06:34:30.478Z,14.05
2018-04-01T06:36:57.834Z,14.87
2018-04-01T06:39:25.194Z,13.43
2018-04-01T06:41:52.547Z,13.48
2018-04-01T06:44:19.902Z,13.60
2018-04-01T06:46:47.258Z,15.63
2018-04-01T06:49:14.611Z,10.52
2018-04-01T06:51:41.966Z,8.40
2018-04-01T06:54:09.322Z,7.00
2018-04-01T06:56:36.676Z,7.00
2018-04-01T06:59:04.850Z,6.57
2018-04-01T07:01:32.207Z,6.30
2018-04-01T07:03:59.562Z,5.37
2018-04-01T07:06:26.917Z,5.72
2018-04-01T07:08:54.272Z,8.27
2018-04-01T07:11:21.632Z,5.07
2018-04-01T07:13:48.982Z,6.32
2018-04-01T07:16:16.337Z,6.35
2018-04-01T07:18:43.694Z,6.07
2018-04-01T07:21:11.049Z,7.07
2018-04-01T07:23:38.408Z,9.27
2018-04-01T07:26:05.760Z,11.50
2018-04-01T07:28:33.119Z,10.52
2018-04-01T07:31:00.470Z,11.40
2018-04-01T07:33:27.826Z,11.25
2018-04-01T07:35:57.359Z,11.30
2018-04-01T07:38:27.486Z,12.32
2018-04-01T07:40:55.011Z,13.73
2018-04-01T07:43:22.366Z,14.68
2018-04-01T07:45:49.721Z,17.15
2018-04-01T07:48:17.078Z,10.68
2018-04-01T07:50:45.150Z,15.25
2018-04-01T07:53:12.506Z,12.07
2018-04-01T07:55:39.861Z,15.38
2018-04-01T07:58:07.220Z,14.75
2018-04-01T08:00:34.571Z,14.75
2018-04-01T08:03:01.935Z,13.95
2018-04-01T08:05:29.281Z,19.95
2018-04-01T08:07:56.637Z,23.90
2018-04-01T08:10:24.037Z,16.55
2018-04-01T08:12:52.169Z,16.30
2018-04-01T08:15:19.727Z,13.70
2018-04-01T08:17:47.205Z,14.48
2018-04-01T08:20:15.052Z,16.37
2018-04-01T08:22:42.407Z,13.02
2018-04-01T08:25:09.762Z,13.75
2018-04-01T08:27:37.322Z,17.33
2018-04-01T08:30:04.677Z,12.60
2018-04-01T08:32:32.033Z,17.40
2018-04-01T08:34:59.390Z,12.57
2018-04-01T08:37:28.075Z,12.40
2018-04-01T08:39:56.351Z,13.32
2018-04-01T08:42:23.707Z,11.65
2018-04-01T08:44:51.074Z,24.90
2018-04-01T08:47:18.418Z,14.25
2018-04-01T08:49:45.774Z,10.40
2018-04-01T08:52:13.134Z,13.23
2018-04-01T08:54:40.484Z,11.98
2018-04-01T08:57:07.840Z,11.27
2018-04-01T08:59:35.208Z,11.27
2018-04-01T09:02:03.369Z,13.07
2018-04-01T09:04:30.724Z,11.88
2018-04-01T09:06:58.081Z,13.35
2018-04-01T09:09:26.667Z,13.62
2018-04-01T09:11:54.672Z,12.75
2018-04-01T09:14:22.911Z,10.73
2018-04-01T09:16:51.822Z,9.52
2018-04-01T09:19:19.160Z,9.65
2018-04-01T09:21:46.513Z,8.82
2018-04-01T09:24:13.867Z,9.80
2018-04-01T09:26:41.223Z,6.53
2018-04-01T09:29:08.577Z,6.50
2018-04-01T09:31:35.933Z,6.30
2018-04-01T09:34:03.289Z,7.60
2018-04-01T09:36:30.644Z,7.45
2018-04-01T09:38:58.001Z,7.20
2018-04-01T09:41:25.354Z,7.28
2018-04-01T09:43:52.710Z,7.45
2018-04-01T09:46:20.065Z,5.90
2018-04-01T09:48:47.637Z,6.40
2018-04-01T09:51:14.981Z,5.90
2018-04-01T09:53:42.337Z,6.80
2018-04-01T09:56:09.693Z,8.05
2018-04-01T09:58:37.046Z,8.50
2018-04-01T10:01:04.913Z,5.97
2018-04-01T10:03:32.782Z,6.50
2018-04-01T10:06:00.652Z,10.57
2018-04-01T10:08:28.517Z,7.45
2018-04-01T10:10:56.384Z,6.55
2018-04-01T10:13:24.282Z,8.05
2018-04-01T10:15:52.838Z,6.57
2018-04-01T10:18:21.450Z,7.75
2018-04-01T10:20:49.285Z,6.18
2018-04-01T10:23:17.153Z,6.62
2018-04-01T10:25:45.021Z,7.03
2018-04-01T10:28:12.888Z,8.45
2018-04-01T10:30:40.755Z,7.62
2018-04-01T10:33:08.621Z,7.37
2018-04-01T10:35:36.490Z,6.93
2018-04-01T10:38:04.413Z,7.43
2018-04-01T10:40:32.947Z,4.22
2018-04-01T10:43:00.707Z,3.90
2018-04-01T10:45:28.574Z,3.10
2018-04-01T10:47:56.441Z,5.40
2018-04-01T10:50:25.425Z,4.65
2018-04-01T10:52:53.302Z,5.50
2018-04-01T10:55:21.742Z,6.78
2018-04-01T10:57:52.259Z,6.12
2018-04-01T11:00:19.668Z,6.80
2018-04-01T11:02:47.126Z,6.57
2018-04-01T11:05:15.765Z,6.20
2018-04-01T11:07:43.066Z,8.00
2018-04-01T11:10:12.938Z,5.55
2018-04-01T11:28:58.028Z,6.30
2018-04-01T11:31:28.208Z,8.27
2018-04-01T11:33:57.937Z,6.32
2018-04-01T11:36:28.210Z,6.87
2018-04-01T11:38:57.855Z,6.60
2018-04-01T11:41:28.186Z,6.20
2018-04-01T11:43:57.799Z,5.90
2018-04-01T11:46:25.320Z,6.45
2018-04-01T11:48:52.529Z,6.32
2018-04-01T11:51:19.826Z,7.25
2018-04-01T11:53:47.185Z,7.00
2018-04-01T11:56:14.675Z,6.43
2018-04-01T11:58:42.916Z,6.60
2018-04-01T12:01:10.475Z,9.77
2018-04-01T12:03:37.831Z,5.85
2018-04-01T12:06:05.187Z,7.93
2018-04-01T12:08:32.543Z,6.60
2018-04-01T12:11:00.716Z,5.40
2018-04-01T12:13:28.073Z,5.70
2018-04-01T12:15:55.426Z,4.70
2018-04-01T12:18:22.800Z,4.10
2018-04-01T12:20:50.445Z,2.97
2018-04-01T12:23:17.800Z,5.53
2018-04-01T12:25:45.156Z,3.80
2018-04-01T12:28:12.817Z,4.90
2018-04-01T12:30:40.178Z,4.95
2018-04-01T12:33:07.532Z,7.45
2018-04-01T12:35:34.884Z,7.03
2018-04-01T12:38:02.241Z,4.65
2018-04-01T12:40:29.522Z,6.65
2018-04-01T12:42:56.740Z,5.97
2018-04-01T12:45:23.967Z,6.85
2018-04-01T12:47:51.177Z,5.70
2018-04-01T12:50:18.676Z,7.05
2018-04-01T12:52:45.898Z,14.15
2018-04-01T12:55:14.032Z,6.18
2018-04-01T12:57:41.389Z,7.20
2018-04-01T13:00:08.744Z,5.40
2018-04-01T13:02:36.112Z,6.37
2018-04-01T13:05:03.455Z,6.80
2018-04-01T13:07:30.666Z,5.37
2018-04-01T13:09:57.961Z,5.90
2018-04-01T13:12:25.319Z,6.57
2018-04-01T13:14:53.308Z,5.50
2018-04-01T13:17:20.954Z,5.68
2018-04-01T13:19:49.332Z,4.65
2018-04-01T13:22:16.540Z,6.53
2018-04-01T13:24:43.833Z,4.62
2018-04-01T13:27:11.187Z,4.95
2018-04-01T13:29:38.545Z,4.10
2018-04-01T13:32:05.842Z,7.10
2018-04-01T13:34:33.898Z,5.55
2018-04-01T13:37:01.891Z,5.07
2018-04-01T13:39:29.874Z,5.90
2018-04-01T13:42:00.425Z,6.57
2018-04-01T13:44:39.777Z,6.35
2018-04-01T13:47:12.164Z,6.10
2018-04-01T13:49:44.881Z,5.70
2018-04-01T13:52:13.005Z,5.70
2018-04-01T13:54:40.220Z,5.05
2018-04-01T13:57:07.620Z,4.40
2018-04-01T13:59:34.968Z,6.80
2018-04-01T14:02:02.323Z,6.12
2018-04-01T14:04:29.673Z,4.97
2018-04-01T14:06:57.034Z,4.62
2018-04-01T14:09:24.390Z,4.85
2018-04-01T14:11:51.615Z,4.90
2018-04-01T14:14:18.836Z,4.87
2018-04-01T14:16:46.813Z,3.72
2018-04-01T14:19:14.938Z,4.70
2018-04-01T14:21:42.293Z,5.00
2018-04-01T14:24:09.794Z,5.72
2018-04-01T14:26:37.112Z,6.45
2018-04-01T14:29:04.460Z,5.55
2018-04-01T14:31:37.098Z,5.75
2018-04-01T14:34:11.113Z,6.22
2018-04-01T14:36:42.846Z,7.95
2018-04-01T14:39:16.148Z,4.75
2018-04-01T14:41:49.328Z,5.62
2018-04-01T14:44:22.380Z,5.53
2018-04-01T14:46:55.090Z,4.97
2018-04-01T14:49:27.369Z,6.43
2018-04-01T14:52:00.370Z,5.87
2018-04-01T14:54:32.232Z,4.20
2018-04-01T14:57:04.795Z,4.35
2018-04-01T14:59:39.832Z,4.82
2018-04-01T15:02:10.453Z,4.35
2018-04-01T15:04:39.584Z,3.95
2018-04-01T15:07:09.207Z,4.28
2018-04-01T15:09:36.489Z,6.03
2018-04-01T15:12:03.782Z,5.75
2018-04-01T15:14:31.916Z,5.32
2018-04-01T15:16:59.271Z,5.12
2018-04-01T15:19:26.485Z,5.30
2018-04-01T15:21:53.777Z,7.40
2018-04-01T15:24:21.133Z,6.55
2018-04-01T15:26:48.346Z,4.65
2018-04-01T15:29:15.586Z,5.07
2018-04-01T15:31:43.711Z,8.07
2018-04-01T15:34:11.067Z,5.90
2018-04-01T15:36:38.289Z,7.50
2018-04-01T15:39:08.111Z,5.15
2018-04-01T15:41:37.942Z,6.32
2018-04-01T15:44:06.985Z,7.12
2018-04-01T15:46:35.113Z,6.10
2018-04-01T15:49:02.468Z,6.20
2018-04-01T15:51:29.824Z,5.47
2018-04-01T15:53:58.113Z,5.25
2018-04-01T15:56:25.333Z,6.22
2018-04-01T15:58:52.969Z,6.30
2018-04-01T16:01:23.660Z,6.68
2018-04-01T16:03:53.131Z,7.72
2018-04-01T16:06:22.549Z,7.53
2018-04-01T16:08:51.857Z,9.00
2018-04-01T16:11:22.473Z,10.18
2018-04-01T16:13:53.332Z,11.45
2018-04-01T16:16:24.124Z,11.68
2018-04-01T16:18:51.417Z,11.70
2018-04-01T16:21:18.631Z,16.05
2018-04-01T16:23:45.860Z,11.52
2018-04-01T16:26:13.835Z,11.30
2018-04-01T16:28:41.842Z,12.05
2018-04-01T16:31:09.073Z,12.25
2018-04-01T16:33:36.299Z,11.10
2018-04-01T16:36:04.302Z,10.68
2018-04-01T16:38:31.517Z,10.27
2018-04-01T16:40:58.946Z,8.93
2018-04-01T16:43:26.301Z,9.02
2018-04-01T16:45:53.659Z,10.32
2018-04-01T16:48:21.011Z,13.02
2018-04-01T16:50:48.368Z,8.90
2018-04-01T16:53:15.722Z,10.60
2018-04-01T16:55:43.078Z,16.05
2018-04-01T16:58:12.398Z,11.20
2018-04-01T17:00:41.277Z,10.45
2018-04-01T17:03:09.907Z,9.35
2018-04-01T17:05:39.156Z,9.70
2018-04-01T17:08:08.885Z,11.00
2018-04-01T17:10:36.097Z,10.25
2018-04-01T17:13:03.313Z,7.95
2018-04-01T17:15:31.341Z,12.23
2018-04-01T17:17:58.698Z,11.30
2018-04-01T17:20:26.258Z,10.20
2018-04-01T17:22:53.514Z,9.85
2018-04-01T17:25:20.871Z,10.27
2018-04-01T17:27:48.222Z,9.88
2018-04-01T17:30:16.397Z,9.68
2018-04-01T17:32:43.618Z,8.75
2018-04-01T17:35:10.833Z,10.40
2018-04-01T17:37:38.973Z,8.80
2018-04-01T17:40:06.329Z,9.23
2018-04-01T17:42:33.613Z,13.55
2018-04-01T17:45:01.594Z,11.63
2018-04-01T17:47:29.726Z,11.95
2018-04-01T17:49:57.080Z,8.73
2018-04-01T17:52:24.310Z,10.60
2018-04-01T17:54:51.539Z,11.50
2018-04-01T17:57:18.812Z,10.82
2018-04-01T17:59:46.030Z,10.90
2018-04-01T18:02:14.013Z,12.68
2018-04-01T18:04:41.231Z,11.40
2018-04-01T18:07:08.461Z,10.70
2018-04-01T18:09:35.681Z,12.73
2018-04-01T18:12:02.897Z,11.93
2018-04-01T18:14:32.184Z,13.10
2018-04-01T18:16:59.413Z,15.13
2018-04-01T18:19:26.638Z,12.25
2018-04-01T18:21:53.868Z,14.87
2018-04-01T18:24:21.894Z,12.70
2018-04-01T18:26:49.145Z,16.00
2018-04-01T18:29:16.380Z,11.32
2018-04-01T18:31:43.614Z,11.68
2018-04-01T18:34:10.873Z,10.45
2018-04-01T18:36:38.098Z,11.12
2018-04-01T18:39:06.077Z,9.55
2018-04-01T18:41:34.052Z,10.70
2018-04-01T18:44:01.277Z,11.63
2018-04-01T18:46:29.284Z,11.68
2018-04-01T18:48:56.518Z,12.50
2018-04-01T18:51:24.502Z,10.07
2018-04-01T18:53:51.730Z,15.10
2018-04-01T18:56:19.770Z,16.12
2018-04-01T18:58:47.233Z,19.45
2018-04-01T19:01:14.582Z,18.55
2018-04-01T19:03:41.939Z,17.87
2018-04-01T19:06:09.167Z,20.00
2018-04-01T19:08:36.389Z,18.62
2018-04-01T19:11:04.366Z,21.70
2018-04-01T19:13:31.577Z,18.27
2018-04-01T19:15:59.327Z,19.87
2018-04-01T19:18:27.050Z,18.55
2018-04-01T19:20:54.770Z,19.27
2018-04-01T19:23:22.625Z,19.20
2018-04-01T19:25:50.357Z,21.30
2018-04-01T19:28:18.088Z,18.30
2018-04-01T19:30:46.585Z,21.17
2018-04-01T19:33:14.306Z,23.48
2018-04-01T19:35:42.021Z,26.92
2018-04-01T19:38:09.781Z,26.27
2018-04-01T19:40:37.491Z,27.33
2018-04-01T19:43:05.209Z,22.37
2018-04-01T19:45:33.020Z,27.23
2018-04-01T19:48:00.887Z,24.35
2018-04-01T19:50:28.598Z,26.17
2018-04-01T19:52:57.126Z,27.65
2018-04-01T19:55:25.002Z,26.70
2018-04-01T19:57:52.868Z,27.65
2018-04-01T20:00:20.606Z,25.65
2018-04-01T20:02:48.355Z,29.60
2018-04-01T20:05:16.057Z,31.90
2018-04-01T20:07:43.845Z,31.45
2018-04-01T20:10:11.549Z,31.25
2018-04-01T20:12:39.259Z,29.42
2018-04-01T20:15:07.002Z,30.37
2018-04-01T20:17:34.723Z,30.02
2018-04-01T20:20:03.265Z,30.08
2018-04-01T20:22:31.133Z,26.77
2018-04-01T20:24:58.878Z,27.92
2018-04-01T20:27:26.595Z,28.55
2018-04-01T20:29:54.333Z,30.70
2018-04-01T20:32:22.042Z,33.10
2018-04-01T20:34:49.743Z,27.60
2018-04-01T20:37:17.622Z,28.30
2018-04-01T20:39:45.486Z,37.67
2018-04-01T20:42:13.252Z,29.65
2018-04-01T20:44:41.119Z,30.50
2018-04-01T20:47:08.826Z,30.92
2018-04-01T20:49:37.468Z,32.10
2018-04-01T20:52:05.187Z,35.30
2018-04-01T20:54:32.897Z,28.92
2018-04-01T20:57:00.610Z,31.90
2018-04-01T20:59:28.318Z,29.85
2018-04-01T21:01:56.038Z,29.75
2018-04-01T21:04:23.751Z,31.58
2018-04-01T21:06:51.524Z,29.77
2018-04-01T21:09:19.383Z,31.90
2018-04-01T21:11:47.251Z,29.00
2018-04-01T21:14:15.116Z,35.50
2018-04-01T21:16:42.995Z,31.85
2018-04-01T21:19:10.722Z,34.65
2018-04-01T21:21:38.436Z,34.08
2018-04-01T21:24:06.149Z,33.63
2018-04-01T21:26:33.862Z,36.03
2018-04-01T21:29:01.582Z,37.35
2018-04-01T21:31:29.300Z,41.67
2018-04-01T21:33:57.781Z,40.83
2018-04-01T21:36:26.264Z,40.35
2018-04-01T21:38:54.815Z,37.35
2018-04-01T21:41:22.526Z,35.85
2018-04-01T21:43:50.266Z,42.88
2018-04-01T21:46:18.832Z,35.83
2018-04-01T21:48:46.550Z,36.30
2018-04-01T21:51:14.257Z,40.80
2018-04-01T21:53:41.963Z,38.70
2018-04-01T21:56:10.448Z,35.53
2018-04-01T21:58:39.084Z,33.75
2018-04-01T22:01:06.952Z,35.58
2018-04-01T22:03:34.819Z,45.17
2018-04-01T22:06:02.686Z,32.65
2018-04-01T22:08:31.163Z,40.50
2018-04-01T22:10:58.878Z,42.50
2018-04-01T22:13:27.345Z,41.00
2018-04-01T22:15:55.822Z,43.17
2018-04-01T22:18:23.525Z,47.90
2018-04-01T22:20:51.238Z,41.03
2018-04-01T22:23:18.954Z,46.67
2018-04-01T22:25:46.702Z,49.42
2018-04-01T22:28:14.516Z,58.80
2018-04-01T22:30:42.230Z,50.05
2018-04-01T22:33:09.966Z,49.15
2018-04-01T22:35:37.714Z,48.63
2018-04-01T22:38:05.418Z,49.78
2018-04-01T22:40:33.889Z,52.00
2018-04-01T22:43:02.371Z,42.47
2018-04-01T22:45:30.917Z,44.30
2018-04-01T22:47:58.785Z,44.15
2018-04-01T22:50:26.522Z,43.15
2018-04-01T22:52:54.272Z,39.53
2018-04-01T22:55:22.183Z,40.20
2018-04-01T22:57:50.049Z,43.92
2018-04-01T23:00:17.918Z,40.12
2018-04-01T23:02:45.629Z,41.92
2018-04-01T23:05:14.102Z,43.47
2018-04-01T23:07:42.578Z,40.90
2018-04-01T23:10:11.231Z,38.47
2018-04-01T23:12:39.098Z,35.10
2018-04-01T23:15:06.964Z,39.40
2018-04-01T23:17:34.832Z,36.53
2018-04-01T23:20:02.700Z,44.22
2018-04-01T23:22:30.566Z,38.85
2018-04-01T23:24:58.433Z,40.83
2018-04-01T23:27:26.140Z,39.78
2018-04-01T23:29:54.627Z,45.65
2018-04-01T23:32:23.106Z,44.63
2018-04-01T23:34:51.590Z,38.35
2018-04-01T23:37:19.301Z,39.22
2018-04-01T23:39:47.022Z,38.53
2018-04-01T23:42:14.727Z,37.13
2018-04-01T23:44:42.438Z,38.42
2018-04-01T23:47:10.930Z,41.42
2018-04-01T23:49:38.669Z,42.17
2018-04-01T23:52:06.385Z,39.80
2018-04-01T23:54:34.099Z,43.40
2018-04-01T23:57:01.891Z,43.38
2018-04-01T23:59:29.703Z,39.55
